Time;durP1;ratioP1;P1;durP2;ratioP2;P2;SDS_P1;SDS_P2;PMS_P1;PMS_P2;Temp;Humidity;BMP_temperature;BMP_pressure;BME280_temperature;BME280_humidity;BME280_pressure;Samples;Min_cycle;Max_cycle;Signal;HPM_P1;HPM_P2
2021/03/05 00:02:03;;;;;;;22.65;14.85;;;7.60;99.90;;;;;;5075553;28;20460;-85
2021/03/05 00:04:30;;;;;;;20.60;12.10;;;7.40;99.90;;;;;;5074851;28;20285;-85
2021/03/05 00:06:56;;;;;;;30.15;16.63;;;7.30;99.90;;;;;;5075267;28;20476;-87
2021/03/05 00:09:22;;;;;;;27.35;16.92;;;7.20;99.90;;;;;;5075387;28;20281;-86
2021/03/05 00:11:49;;;;;;;34.83;18.70;;;7.10;99.90;;;;;;5075094;28;20316;-84
2021/03/05 00:14:15;;;;;;;30.48;17.95;;;7.10;99.90;;;;;;5073902;28;20312;-85
2021/03/05 00:16:42;;;;;;;35.00;16.92;;;7.10;99.90;;;;;;5074346;28;20248;-85
2021/03/05 00:19:09;;;;;;;32.22;17.48;;;7.10;99.90;;;;;;5084623;28;20209;-89
2021/03/05 00:21:35;;;;;;;29.08;16.63;;;7.00;99.90;;;;;;5096337;28;20291;-86
2021/03/05 00:24:02;;;;;;;20.88;13.02;;;7.00;99.90;;;;;;5095319;28;20636;-83
2021/03/05 00:26:28;;;;;;;29.02;17.58;;;6.80;99.90;;;;;;5097952;28;20296;-85
2021/03/05 00:28:54;;;;;;;22.92;14.38;;;6.70;99.90;;;;;;5094695;28;20296;-84
2021/03/05 00:31:21;;;;;;;21.83;14.05;;;6.50;99.90;;;;;;5096540;28;20319;-88
2021/03/05 00:33:48;;;;;;;27.75;17.10;;;6.40;99.90;;;;;;5095206;28;20289;-86
2021/03/05 00:36:15;;;;;;;24.10;16.95;;;6.40;99.90;;;;;;5095305;28;20284;-89
2021/03/05 00:38:42;;;;;;;30.73;17.73;;;6.20;99.90;;;;;;5096833;28;20370;-86
2021/03/05 00:41:08;;;;;;;24.83;15.50;;;6.20;99.90;;;;;;5095254;28;20312;-85
2021/03/05 00:43:35;;;;;;;25.25;14.43;;;6.20;99.90;;;;;;5094913;28;20255;-84
2021/03/05 00:46:01;;;;;;;27.58;17.58;;;6.20;99.90;;;;;;5095261;28;20231;-86
2021/03/05 00:48:27;;;;;;;25.50;16.90;;;6.10;99.90;;;;;;5099611;28;20201;-85
2021/03/05 00:50:57;;;;;;;28.58;17.58;;;6.30;99.90;;;;;;5095889;28;20244;-82
2021/03/05 00:53:23;;;;;;;29.45;18.35;;;6.00;99.90;;;;;;5087407;28;20661;-87
2021/03/05 00:55:50;;;;;;;34.60;20.15;;;6.00;99.90;;;;;;5085776;28;20240;-87
2021/03/05 00:58:16;;;;;;;26.70;16.75;;;5.90;99.90;;;;;;5094439;28;20209;-87
2021/03/05 01:00:43;;;;;;;30.38;17.30;;;5.90;99.90;;;;;;5096619;28;20236;-86
2021/03/05 01:03:10;;;;;;;32.00;19.75;;;5.80;99.90;;;;;;5094350;28;20299;-89
2021/03/05 01:05:36;;;;;;;29.15;17.10;;;5.80;99.90;;;;;;5077071;28;20288;-85
2021/03/05 01:08:04;;;;;;;31.90;17.92;;;5.90;99.90;;;;;;5076255;28;20236;-84
2021/03/05 01:10:31;;;;;;;26.67;17.10;;;5.80;99.90;;;;;;5074532;28;20312;-83
2021/03/05 01:12:59;;;;;;;33.72;19.55;;;5.60;99.90;;;;;;5074361;28;20607;-89
2021/03/05 01:15:25;;;;;;;27.60;14.85;;;5.50;99.90;;;;;;5070251;28;20288;-89
2021/03/05 01:17:51;;;;;;;27.90;17.40;;;5.30;99.90;;;;;;5073964;28;20248;-91
2021/03/05 01:20:20;;;;;;;32.72;17.25;;;5.20;99.90;;;;;;5092541;28;20232;-89
2021/03/05 01:22:47;;;;;;;25.50;15.10;;;5.10;99.90;;;;;;5094503;28;20299;-87
2021/03/05 01:25:17;;;;;;;32.33;19.35;;;5.00;99.90;;;;;;5095245;28;20208;-91
2021/03/05 01:27:44;;;;;;;28.70;16.83;;;4.90;99.90;;;;;;5093667;28;20260;-88
2021/03/05 01:30:14;;;;;;;32.63;18.52;;;4.90;99.90;;;;;;5094232;28;20701;-86
2021/03/05 01:32:41;;;;;;;25.88;15.80;;;4.90;99.90;;;;;;5097391;28;20568;-86
2021/03/05 01:35:12;;;;;;;33.25;18.65;;;4.20;99.90;;;;;;5094117;28;20590;-89
2021/03/05 01:37:39;;;;;;;27.63;13.52;;;4.80;99.90;;;;;;5095615;28;20229;-85
2021/03/05 01:40:09;;;;;;;28.25;21.00;;;4.80;99.90;;;;;;5094939;28;20291;-83
2021/03/05 01:42:36;;;;;;;33.15;18.33;;;4.70;99.90;;;;;;5085565;28;20198;-84
2021/03/05 01:45:05;;;;;;;31.67;17.00;;;4.70;99.90;;;;;;5075179;28;20288;-86
2021/03/05 01:47:32;;;;;;;32.20;17.45;;;4.70;99.90;;;;;;5073290;28;20244;-84
2021/03/05 01:49:59;;;;;;;26.83;17.48;;;4.60;99.90;;;;;;5074051;28;20296;-85
2021/03/05 01:52:26;;;;;;;32.95;16.45;;;4.60;99.90;;;;;;5074167;28;20292;-83
2021/03/05 01:54:53;;;;;;;26.70;15.65;;;4.60;99.90;;;;;;5074472;28;20282;-88
2021/03/05 01:57:19;;;;;;;24.65;14.55;;;4.40;99.90;;;;;;5074102;28;20292;-82
2021/03/05 01:59:46;;;;;;;35.20;17.60;;;4.40;99.90;;;;;;5072054;28;20292;-85
2021/03/05 02:02:13;;;;;;;26.85;14.65;;;4.50;99.90;;;;;;5073111;28;20296;-87
2021/03/05 02:04:39;;;;;;;30.25;16.80;;;4.50;99.90;;;;;;5073225;28;20229;-89
2021/03/05 02:07:08;;;;;;;35.42;17.55;;;5.20;99.90;;;;;;5074864;28;20344;-87
2021/03/05 02:09:34;;;;;;;28.52;16.50;;;4.50;99.90;;;;;;5073098;28;20288;-90
2021/03/05 02:12:01;;;;;;;13.85;8.45;;;4.50;99.90;;;;;;5072744;28;20283;-86
2021/03/05 02:14:28;;;;;;;22.85;14.13;;;4.40;99.90;;;;;;5071972;28;20292;-90
2021/03/05 02:17:06;;;;;;;23.63;14.10;;;4.40;99.90;;;;;;5072891;28;20794;-91
2021/03/05 02:20:11;;;;;;;35.55;15.98;;;4.40;99.90;;;;;;5077592;28;20239;-90
2021/03/05 02:23:16;;;;;;;33.17;17.50;;;3.00;99.90;;;;;;5092992;28;20299;-90
2021/03/05 02:26:16;;;;;;;25.35;15.45;;;4.50;99.90;;;;;;5092893;28;20739;-90
2021/03/05 02:29:13;;;;;;;28.35;12.38;;;4.50;99.90;;;;;;5052954;28;20630;-90
2021/03/05 02:31:43;;;;;;;27.73;17.67;;;4.30;99.90;;;;;;5092954;28;20730;-85
2021/03/05 02:34:16;;;;;;;29.60;15.68;;;4.30;99.90;;;;;;5054734;28;20619;-88
2021/03/05 02:36:49;;;;;;;22.08;14.27;;;4.40;99.90;;;;;;5092461;28;20243;-88
2021/03/05 02:39:18;;;;;;;38.15;18.85;;;4.50;99.90;;;;;;5093343;28;20205;-87
2021/03/05 02:41:51;;;;;;;31.33;16.45;;;4.60;99.90;;;;;;5092682;28;20240;-86
2021/03/05 02:44:22;;;;;;;34.05;17.13;;;4.50;99.90;;;;;;5092229;28;20197;-87
2021/03/05 02:46:51;;;;;;;23.45;13.80;;;4.30;99.90;;;;;;5095768;28;20208;-86
2021/03/05 02:49:20;;;;;;;28.35;17.15;;;4.30;99.90;;;;;;5092807;28;20240;-92
2021/03/05 02:51:48;;;;;;;30.17;14.73;;;6.10;99.90;;;;;;5092806;28;20323;-87
2021/03/05 02:54:16;;;;;;;27.35;15.38;;;4.60;99.90;;;;;;5093128;28;20288;-87
2021/03/05 02:56:46;;;;;;;34.88;17.15;;;4.40;99.90;;;;;;5092633;28;20205;-90
2021/03/05 02:59:14;;;;;;;37.22;17.00;;;4.70;99.90;;;;;;5091219;28;20254;-88
2021/03/05 03:01:47;;;;;;;26.67;14.68;;;4.40;99.90;;;;;;5092691;28;20257;-89
2021/03/05 03:04:15;;;;;;;29.90;17.80;;;4.70;99.90;;;;;;5058222;28;20726;-87
2021/03/05 03:06:44;;;;;;;24.30;14.75;;;4.40;99.90;;;;;;5092637;28;20243;-88
2021/03/05 03:09:14;;;;;;;26.60;15.57;;;4.70;99.90;;;;;;5092710;28;20330;-87
2021/03/05 03:11:42;;;;;;;26.30;15.60;;;6.50;99.90;;;;;;5092620;28;20284;-91
2021/03/05 03:14:10;;;;;;;22.88;16.05;;;4.30;99.90;;;;;;5091855;28;20287;-88
2021/03/05 03:16:38;;;;;;;25.25;13.20;;;4.40;99.90;;;;;;5092298;28;20236;-89
2021/03/05 03:19:13;;;;;;;23.75;11.35;;;4.30;99.90;;;;;;5092967;28;20287;-88
2021/03/05 03:21:41;;;;;;;24.55;15.18;;;4.40;99.90;;;;;;5092237;28;20212;-88
2021/03/05 03:24:09;;;;;;;31.63;16.27;;;4.40;99.90;;;;;;5092703;28;20566;-89
2021/03/05 03:26:37;;;;;;;29.45;15.73;;;4.40;99.90;;;;;;5092688;28;20239;-91
2021/03/05 03:29:07;;;;;;;23.50;14.23;;;4.40;99.90;;;;;;5092628;28;20240;-91
2021/03/05 03:31:34;;;;;;;26.77;15.30;;;4.50;99.90;;;;;;5095283;28;20232;-89
2021/03/05 03:34:01;;;;;;;24.92;14.50;;;4.50;99.90;;;;;;5093022;28;20262;-92
2021/03/05 03:36:28;;;;;;;23.70;14.18;;;4.50;99.90;;;;;;5047117;28;20607;-90
2021/03/05 03:38:56;;;;;;;24.75;14.15;;;4.50;99.90;;;;;;5050433;28;20206;-89
2021/03/05 03:41:23;;;;;;;27.48;15.15;;;4.40;99.90;;;;;;5050218;28;20240;-84
2021/03/05 03:43:49;;;;;;;24.42;14.90;;;4.40;99.90;;;;;;5047962;28;20685;-88
2021/03/05 03:46:16;;;;;;;28.88;15.18;;;4.40;99.90;;;;;;5050582;28;20333;-88
2021/03/05 03:48:47;;;;;;;24.88;15.38;;;4.50;99.90;;;;;;5049343;28;20293;-87
2021/03/05 03:51:17;;;;;;;27.13;14.32;;;4.60;99.90;;;;;;5049970;28;20320;-89
2021/03/05 03:53:45;;;;;;;21.65;12.23;;;4.50;99.90;;;;;;5059877;28;20566;-90
2021/03/05 03:56:14;;;;;;;10.63;6.50;;;4.40;99.90;;;;;;5097630;28;20228;-86
2021/03/05 03:58:42;;;;;;;24.25;14.50;;;5.30;99.90;;;;;;5096176;28;20232;-88
2021/03/05 04:01:10;;;;;;;23.45;14.20;;;4.70;99.90;;;;;;5113634;28;20192;-86
2021/03/05 04:03:40;;;;;;;21.23;12.93;;;4.50;99.90;;;;;;5120474;28;20302;-88
2021/03/05 04:06:10;;;;;;;17.38;11.30;;;4.40;99.90;;;;;;5120515;28;20197;-89
2021/03/05 04:08:39;;;;;;;19.40;12.10;;;5.10;99.90;;;;;;5108657;28;20303;-89
2021/03/05 04:11:07;;;;;;;22.10;11.80;;;4.40;99.90;;;;;;5097335;28;20228;-89
2021/03/05 04:13:36;;;;;;;10.15;7.93;;;4.50;99.90;;;;;;5097284;28;20262;-87
2021/03/05 04:16:03;;;;;;;15.43;10.77;;;4.50;99.90;;;;;;5097310;28;20215;-84
2021/03/05 04:18:31;;;;;;;24.10;13.43;;;4.40;99.90;;;;;;5096669;28;20205;-87
2021/03/05 04:21:02;;;;;;;15.25;10.00;;;4.50;99.90;;;;;;5094877;28;20227;-88
2021/03/05 04:23:28;;;;;;;15.90;9.40;;;4.40;99.90;;;;;;5095701;28;20230;-85
2021/03/05 04:25:55;;;;;;;17.92;11.40;;;4.40;99.90;;;;;;5095678;28;20232;-88
2021/03/05 04:28:21;;;;;;;14.48;11.30;;;4.40;99.90;;;;;;5094058;28;20268;-87
2021/03/05 04:30:48;;;;;;;21.10;11.85;;;4.50;99.90;;;;;;5095767;28;20288;-88
2021/03/05 04:33:15;;;;;;;18.20;11.52;;;4.40;99.90;;;;;;5095871;28;20300;-84
2021/03/05 04:35:41;;;;;;;16.98;10.95;;;4.40;99.90;;;;;;5095061;28;20275;-87
2021/03/05 04:38:07;;;;;;;17.63;10.52;;;4.40;99.90;;;;;;5095853;28;20227;-85
2021/03/05 04:40:34;;;;;;;15.20;9.35;;;4.40;99.90;;;;;;5076954;28;20232;-87
2021/03/05 04:43:00;;;;;;;9.55;6.57;;;4.40;99.90;;;;;;5091700;28;20296;-87
2021/03/05 04:45:26;;;;;;;19.38;10.13;;;4.40;99.90;;;;;;5095339;28;20308;-85
2021/03/05 04:47:54;;;;;;;17.27;11.10;;;4.30;99.90;;;;;;5096265;28;20375;-88
2021/03/05 04:50:21;;;;;;;13.80;8.45;;;4.30;99.90;;;;;;5096982;28;20719;-87
2021/03/05 04:52:47;;;;;;;11.77;6.90;;;4.30;99.90;;;;;;5094685;28;20237;-86
2021/03/05 04:55:14;;;;;;;14.90;8.43;;;4.30;99.90;;;;;;5097994;27;20303;-88
2021/03/05 04:57:40;;;;;;;14.40;8.52;;;4.40;99.90;;;;;;5095620;28;20295;-89
2021/03/05 05:00:08;;;;;;;16.27;9.15;;;5.00;99.90;;;;;;5096986;28;20216;-88
2021/03/05 05:02:34;;;;;;;16.25;9.80;;;4.40;99.90;;;;;;5109819;28;20186;-86
2021/03/05 05:05:02;;;;;;;17.52;8.80;;;4.40;99.90;;;;;;5092906;28;20617;-87
2021/03/05 05:07:28;;;;;;;15.10;8.82;;;4.40;99.90;;;;;;5097207;28;20198;-90
2021/03/05 05:09:55;;;;;;;16.88;10.60;;;4.90;99.90;;;;;;5099862;28;20174;-86
2021/03/05 05:12:21;;;;;;;21.60;10.38;;;5.00;99.90;;;;;;5099394;28;20229;-89
2021/03/05 05:14:48;;;;;;;16.27;8.65;;;4.50;99.90;;;;;;5087547;28;20229;-89
2021/03/05 05:17:14;;;;;;;15.93;7.72;;;5.10;99.90;;;;;;5085005;28;20212;-88
2021/03/05 05:19:41;;;;;;;14.93;9.77;;;4.50;99.90;;;;;;5078514;28;20681;-86
2021/03/05 05:22:08;;;;;;;17.00;9.52;;;4.40;99.90;;;;;;5075362;28;20209;-86
2021/03/05 05:24:37;;;;;;;15.32;8.82;;;4.40;99.90;;;;;;5074496;28;20209;-87
2021/03/05 05:27:04;;;;;;;14.18;7.05;;;4.40;99.90;;;;;;5074336;28;20241;-90
2021/03/05 05:29:30;;;;;;;11.40;7.05;;;4.40;99.90;;;;;;5074046;28;20244;-85
2021/03/05 05:31:57;;;;;;;12.40;8.98;;;4.40;99.90;;;;;;5074787;28;20772;-89
2021/03/05 05:34:23;;;;;;;11.90;6.72;;;4.40;99.90;;;;;;5074383;28;20213;-86
2021/03/05 05:36:50;;;;;;;9.75;6.45;;;4.40;99.90;;;;;;5074164;28;20202;-89
2021/03/05 05:39:17;;;;;;;10.27;6.57;;;4.40;99.90;;;;;;5074783;28;20247;-89
2021/03/05 05:41:44;;;;;;;15.30;6.75;;;4.40;99.90;;;;;;5074048;28;20202;-85
2021/03/05 05:44:10;;;;;;;9.85;5.93;;;4.20;99.90;;;;;;5078643;28;20648;-86
2021/03/05 05:46:39;;;;;;;8.80;5.43;;;4.30;99.90;;;;;;5094448;28;20737;-88
2021/03/05 05:49:07;;;;;;;6.72;5.05;;;4.20;99.90;;;;;;5093567;28;20347;-87
2021/03/05 05:51:37;;;;;;;10.57;7.25;;;4.20;99.90;;;;;;5083347;28;20229;-84
2021/03/05 05:54:08;;;;;;;9.50;4.75;;;4.20;99.90;;;;;;5074468;28;20752;-90
2021/03/05 05:56:36;;;;;;;12.45;6.93;;;4.20;99.90;;;;;;5074926;28;20201;-86
2021/03/05 05:59:03;;;;;;;12.20;8.45;;;4.30;99.90;;;;;;5072473;28;20612;-84
2021/03/05 06:04:16;;;;;;;14.70;8.70;;;4.20;99.90;;;;;;5074325;28;20208;-84
2021/03/05 06:06:43;;;;;;;13.55;7.50;;;4.20;99.90;;;;;;5075589;28;20288;-87
2021/03/05 06:09:09;;;;;;;11.82;7.10;;;4.20;99.90;;;;;;5073333;28;20292;-84
2021/03/05 06:11:38;;;;;;;12.70;6.45;;;4.30;99.90;;;;;;5073696;28;20382;-86
2021/03/05 06:14:06;;;;;;;11.13;5.97;;;4.30;99.90;;;;;;5072339;28;20671;-88
2021/03/05 06:16:33;;;;;;;10.40;7.10;;;4.20;99.90;;;;;;5074299;28;20284;-86
2021/03/05 06:19:00;;;;;;;14.43;7.15;;;4.20;99.90;;;;;;5055349;28;20292;-88
2021/03/05 06:21:36;;;;;;;12.45;7.07;;;4.10;99.90;;;;;;5073696;28;20206;-86
2021/03/05 06:24:04;;;;;;;13.05;7.20;;;3.00;99.90;;;;;;5073076;28;20233;-87
2021/03/05 06:26:46;;;;;;;12.35;7.13;;;4.20;99.90;;;;;;5073067;28;20208;-84
2021/03/05 06:29:13;;;;;;;8.55;5.93;;;4.20;99.90;;;;;;5071942;28;20260;-85
2021/03/05 06:31:53;;;;;;;17.70;8.75;;;4.20;99.90;;;;;;5074711;28;20236;-90
2021/03/05 06:34:20;;;;;;;13.27;6.28;;;4.00;99.90;;;;;;5037595;28;20660;-85
2021/03/05 06:36:59;;;;;;;16.92;7.38;;;4.20;99.90;;;;;;5072406;28;20221;-88
2021/03/05 06:39:26;;;;;;;21.90;9.52;;;4.20;99.90;;;;;;5073523;28;20227;-85
2021/03/05 06:42:05;;;;;;;12.30;6.00;;;4.10;99.90;;;;;;5073343;28;20296;-84
2021/03/05 06:44:36;;;;;;;14.63;9.98;;;4.00;99.90;;;;;;5072909;28;20292;-89
2021/03/05 06:47:13;;;;;;;10.75;7.22;;;4.00;99.90;;;;;;5073662;28;20236;-90
2021/03/05 06:49:43;;;;;;;13.98;9.02;;;4.20;99.90;;;;;;5088279;28;20201;-86
2021/03/05 06:52:10;;;;;;;13.77;6.97;;;4.00;99.90;;;;;;5092941;28;20235;-88
2021/03/05 06:54:38;;;;;;;13.82;8.80;;;4.00;99.90;;;;;;5094695;28;20303;-91
2021/03/05 06:57:06;;;;;;;10.85;7.57;;;4.00;99.90;;;;;;5095632;28;20201;-86
2021/03/05 06:59:38;;;;;;;15.48;10.35;;;4.10;99.90;;;;;;5073796;28;20554;-91
2021/03/05 07:02:06;;;;;;;13.18;6.95;;;4.10;99.90;;;;;;5093461;28;20243;-87
2021/03/05 07:04:34;;;;;;;13.52;7.50;;;4.00;99.90;;;;;;5093552;28;20292;-85
2021/03/05 07:07:02;;;;;;;14.73;7.57;;;4.00;99.90;;;;;;5093704;28;20297;-83
2021/03/05 07:09:31;;;;;;;16.10;9.52;;;4.00;99.90;;;;;;5093993;28;20342;-87
2021/03/05 07:11:58;;;;;;;17.98;8.65;;;4.00;99.90;;;;;;5092052;28;20315;-88
2021/03/05 07:14:30;;;;;;;15.63;7.55;;;4.10;99.90;;;;;;5094813;28;20324;-87
2021/03/05 07:16:58;;;;;;;15.05;7.97;;;4.00;99.90;;;;;;5091202;28;20283;-85
2021/03/05 07:19:27;;;;;;;19.65;10.05;;;4.00;99.90;;;;;;5078652;28;20205;-85
2021/03/05 07:21:54;;;;;;;13.75;8.93;;;4.10;99.90;;;;;;5077931;28;20291;-88
2021/03/05 07:24:22;;;;;;;20.10;9.80;;;4.20;99.90;;;;;;5093040;28;20287;-84
2021/03/05 07:26:53;;;;;;;15.00;8.52;;;4.20;99.90;;;;;;5087803;28;20280;-86
2021/03/05 07:29:22;;;;;;;14.60;9.00;;;4.20;99.90;;;;;;5095980;28;20228;-88
2021/03/05 07:31:58;;;;;;;17.58;9.85;;;4.20;99.90;;;;;;5099774;28;20641;-89
2021/03/05 07:34:27;;;;;;;13.77;8.52;;;4.20;99.90;;;;;;5096555;28;20288;-89
2021/03/05 07:36:57;;;;;;;17.50;10.45;;;4.30;99.90;;;;;;5096402;28;20652;-86
2021/03/05 07:39:30;;;;;;;16.45;9.10;;;4.30;99.90;;;;;;5096917;28;20205;-87
2021/03/05 07:41:57;;;;;;;13.70;8.80;;;4.30;99.90;;;;;;5099439;28;20229;-86
2021/03/05 07:44:25;;;;;;;13.93;9.15;;;4.30;99.90;;;;;;5098383;28;20620;-86
2021/03/05 07:46:53;;;;;;;11.95;8.43;;;4.30;99.90;;;;;;5096001;28;20722;-86
2021/03/05 07:49:27;;;;;;;14.32;8.52;;;4.40;99.90;;;;;;5098414;28;20288;-86
2021/03/05 07:51:56;;;;;;;12.55;8.15;;;4.40;99.90;;;;;;5095714;28;20682;-86
2021/03/05 07:54:42;;;;;;;15.00;8.77;;;4.40;99.90;;;;;;5100905;28;20216;-87
2021/03/05 07:57:44;;;;;;;22.58;8.88;;;4.40;99.90;;;;;;5096463;28;20259;-84
2021/03/05 08:00:11;;;;;;;15.88;8.20;;;4.40;99.90;;;;;;5096065;28;20215;-84
2021/03/05 08:02:55;;;;;;;19.60;8.27;;;4.50;99.90;;;;;;5095910;28;20292;-83
2021/03/05 08:05:37;;;;;;;14.57;6.20;;;5.10;99.90;;;;;;5097033;28;20229;-88
2021/03/05 08:08:15;;;;;;;19.88;9.52;;;5.40;99.90;;;;;;5098728;28;20208;-84
2021/03/05 08:10:44;;;;;;;13.10;7.07;;;4.70;99.90;;;;;;5095826;28;20287;-83
2021/03/05 08:13:44;;;;;;;13.38;7.70;;;5.00;99.90;;;;;;5094530;28;20295;-84
2021/03/05 08:16:32;;;;;;;15.30;7.32;;;4.70;99.90;;;;;;5059888;28;20201;-85
2021/03/05 08:19:28;;;;;;;12.65;7.15;;;4.70;99.90;;;;;;5085409;28;20283;-84
2021/03/05 08:22:02;;;;;;;17.77;8.60;;;4.50;99.90;;;;;;5086668;28;20235;-85
2021/03/05 08:24:30;;;;;;;13.02;8.57;;;4.80;99.90;;;;;;5096069;28;20237;-83
2021/03/05 08:27:03;;;;;;;14.68;8.75;;;5.30;99.90;;;;;;5096386;28;20236;-88
2021/03/05 08:29:52;;;;;;;15.43;8.15;;;4.90;99.90;;;;;;5096661;28;20732;-87
2021/03/05 08:32:53;;;;;;;14.20;7.43;;;5.00;99.90;;;;;;5096183;28;20761;-88
2021/03/05 08:35:44;;;;;;;13.52;7.07;;;4.90;99.90;;;;;;5096473;28;20647;-85
2021/03/05 08:38:14;;;;;;;12.57;7.75;;;4.90;99.90;;;;;;5075589;28;20664;-85
2021/03/05 08:40:49;;;;;;;13.57;8.07;;;5.00;99.90;;;;;;5095603;28;20563;-83
2021/03/05 08:43:21;;;;;;;13.38;8.40;;;5.10;99.90;;;;;;5096788;28;20238;-85
2021/03/05 08:45:49;;;;;;;20.10;7.20;;;5.00;99.90;;;;;;5095128;28;20226;-80
2021/03/05 08:48:30;;;;;;;11.95;8.23;;;5.40;99.90;;;;;;5070887;28;20229;-84
2021/03/05 08:51:08;;;;;;;14.75;8.75;;;5.20;99.90;;;;;;5074492;28;20742;-84
2021/03/05 08:53:40;;;;;;;10.88;7.20;;;5.10;99.90;;;;;;5074810;28;20244;-84
2021/03/05 08:56:07;;;;;;;12.25;6.50;;;5.10;99.90;;;;;;5074686;28;20202;-83
2021/03/05 08:58:34;;;;;;;10.82;8.75;;;5.20;99.90;;;;;;5073738;28;20744;-86
2021/03/05 09:01:01;;;;;;;12.93;7.43;;;5.10;99.90;;;;;;5078219;28;20237;-87
2021/03/05 09:03:27;;;;;;;14.60;6.70;;;5.20;99.90;;;;;;5074774;28;20296;-82
2021/03/05 09:05:53;;;;;;;13.32;7.70;;;5.20;99.90;;;;;;5074604;28;20244;-83
2021/03/05 09:08:23;;;;;;;13.00;7.03;;;5.20;99.90;;;;;;5074177;28;20237;-84
2021/03/05 09:10:52;;;;;;;14.30;7.55;;;5.00;99.90;;;;;;5074328;28;20414;-84
2021/03/05 09:13:20;;;;;;;13.52;8.50;;;5.10;99.90;;;;;;5072583;28;20296;-83
2021/03/05 09:15:47;;;;;;;9.48;5.68;;;5.10;99.90;;;;;;5093310;28;20193;-85
2021/03/05 09:18:16;;;;;;;17.75;9.52;;;5.00;99.90;;;;;;5098251;28;20221;-89
2021/03/05 09:20:46;;;;;;;12.52;8.32;;;5.20;99.90;;;;;;5083429;28;20229;-85
2021/03/05 09:23:20;;;;;;;16.08;9.55;;;5.20;99.90;;;;;;5088471;28;20178;-85
2021/03/05 09:25:52;;;;;;;13.98;8.40;;;5.20;99.90;;;;;;5094244;28;20206;-78
2021/03/05 09:28:24;;;;;;;14.52;8.50;;;5.20;99.90;;;;;;5096018;28;20273;-82
2021/03/05 09:30:52;;;;;;;10.10;6.97;;;5.20;99.90;;;;;;5073974;28;20221;-83
2021/03/05 09:33:27;;;;;;;14.05;6.90;;;5.30;99.90;;;;;;5088231;28;20227;-85
2021/03/05 09:36:06;;;;;;;8.75;6.30;;;5.30;99.90;;;;;;5098113;28;20201;-87
2021/03/05 09:38:33;;;;;;;10.52;6.65;;;5.30;99.90;;;;;;5071815;28;20275;-83
2021/03/05 09:41:22;;;;;;;15.43;7.50;;;5.30;99.90;;;;;;5034757;28;20224;-84
2021/03/05 09:44:00;;;;;;;19.35;8.20;;;5.40;99.90;;;;;;5092632;28;20201;-85
2021/03/05 09:46:28;;;;;;;14.23;7.38;;;3.60;99.90;;;;;;5093288;28;20200;-83
2021/03/05 09:48:55;;;;;;;12.32;8.20;;;5.30;99.90;;;;;;5067273;28;20293;-83
2021/03/05 09:51:23;;;;;;;12.52;7.18;;;5.30;99.90;;;;;;5051338;28;20764;-83
2021/03/05 09:53:53;;;;;;;15.38;7.28;;;5.30;99.90;;;;;;5044870;28;20206;-85
2021/03/05 09:56:23;;;;;;;15.43;6.95;;;5.50;99.90;;;;;;5051864;28;20205;-87
2021/03/05 09:59:06;;;;;;;11.20;7.75;;;5.60;99.90;;;;;;5050544;28;20653;-83
2021/03/05 10:01:37;;;;;;;15.23;7.85;;;5.70;99.90;;;;;;5051402;28;20256;-82
2021/03/05 10:04:04;;;;;;;12.30;6.50;;;5.80;99.90;;;;;;5071113;28;20300;-81
2021/03/05 10:06:31;;;;;;;12.45;7.43;;;5.80;99.90;;;;;;5073006;28;20237;-82
2021/03/05 10:09:00;;;;;;;13.60;8.88;;;5.70;99.90;;;;;;5073256;28;20288;-85
2021/03/05 10:11:36;;;;;;;10.63;6.40;;;5.80;99.90;;;;;;5035806;28;20257;-90
2021/03/05 10:14:05;;;;;;;10.65;6.78;;;5.90;99.90;;;;;;5072505;28;20203;-83
2021/03/05 10:16:36;;;;;;;11.98;7.00;;;5.90;99.90;;;;;;5073211;28;20289;-83
2021/03/05 10:19:06;;;;;;;13.20;7.78;;;5.90;99.90;;;;;;5072903;28;20205;-85
2021/03/05 10:21:35;;;;;;;13.75;7.50;;;6.40;99.90;;;;;;5072047;28;20574;-83
2021/03/05 10:24:06;;;;;;;11.07;6.20;;;6.10;99.90;;;;;;5072923;28;20653;-83
2021/03/05 10:26:34;;;;;;;16.42;7.10;;;6.30;99.90;;;;;;5073325;28;20634;-83
2021/03/05 10:29:06;;;;;;;12.13;7.10;;;6.10;99.90;;;;;;5069252;28;20273;-86
2021/03/05 10:31:48;;;;;;;13.18;7.18;;;6.00;99.90;;;;;;5072142;28;20269;-88
2021/03/05 10:34:23;;;;;;;11.25;6.53;;;6.30;99.90;;;;;;5072599;28;20296;-83
2021/03/05 10:36:50;;;;;;;15.90;8.05;;;6.20;99.90;;;;;;5072829;28;20631;-82
2021/03/05 10:39:17;;;;;;;11.55;6.40;;;6.10;99.90;;;;;;5072823;28;20339;-83
2021/03/05 10:41:51;;;;;;;15.00;6.90;;;6.20;99.90;;;;;;5073023;28;20292;-82
2021/03/05 10:44:17;;;;;;;9.73;6.82;;;6.30;99.90;;;;;;5071322;28;20300;-82
2021/03/05 10:46:43;;;;;;;12.93;7.15;;;6.30;99.90;;;;;;5072491;28;20198;-84
2021/03/05 10:49:10;;;;;;;11.13;5.97;;;6.30;99.90;;;;;;5073928;28;20246;-85
2021/03/05 10:51:36;;;;;;;8.75;5.45;;;6.30;99.90;;;;;;5072671;28;20642;-84
2021/03/05 10:54:03;;;;;;;9.38;6.55;;;6.30;99.90;;;;;;5072763;28;20213;-87
2021/03/05 10:56:31;;;;;;;9.65;6.35;;;6.10;99.90;;;;;;5072523;28;20295;-82
2021/03/05 10:58:58;;;;;;;13.50;7.75;;;6.10;99.90;;;;;;5071262;28;20292;-82
2021/03/05 11:01:25;;;;;;;10.30;6.35;;;6.10;99.90;;;;;;4989633;28;20215;-82
2021/03/05 11:03:52;;;;;;;11.65;6.55;;;6.10;99.90;;;;;;4978941;28;20235;-88
2021/03/05 11:06:19;;;;;;;12.02;6.50;;;6.10;99.90;;;;;;4992559;28;20234;-85
2021/03/05 11:08:45;;;;;;;10.95;6.97;;;6.30;99.90;;;;;;4995440;28;20291;-83
2021/03/05 11:11:12;;;;;;;11.20;7.03;;;6.40;99.90;;;;;;4994294;28;20232;-83
2021/03/05 11:13:38;;;;;;;10.38;6.50;;;6.30;99.90;;;;;;4993600;28;20714;-82
2021/03/05 11:16:06;;;;;;;10.93;6.47;;;6.30;99.90;;;;;;4994656;28;20208;-82
2021/03/05 11:18:32;;;;;;;11.18;6.82;;;6.30;99.90;;;;;;5012803;28;20208;-83
2021/03/05 11:21:00;;;;;;;12.27;7.45;;;6.30;99.90;;;;;;4995338;28;20274;-82
2021/03/05 11:23:27;;;;;;;13.00;6.78;;;6.30;99.90;;;;;;4995044;28;20228;-83
2021/03/05 11:25:53;;;;;;;11.40;7.68;;;6.30;99.90;;;;;;5032088;28;20676;-85
2021/03/05 11:28:20;;;;;;;13.40;7.60;;;6.50;99.90;;;;;;5074615;28;20233;-81
2021/03/05 11:30:46;;;;;;;15.20;7.30;;;6.50;99.90;;;;;;5075604;28;20289;-79
2021/03/05 11:33:14;;;;;;;11.00;5.90;;;6.50;99.90;;;;;;5075827;28;20296;-82
2021/03/05 11:35:41;;;;;;;11.05;6.55;;;6.30;99.90;;;;;;5075517;28;20209;-81
2021/03/05 11:38:07;;;;;;;14.52;7.32;;;6.50;99.90;;;;;;5074220;28;20280;-82
2021/03/05 11:40:34;;;;;;;9.50;5.72;;;6.60;99.90;;;;;;5075039;28;20288;-85
2021/03/05 11:43:00;;;;;;;10.85;6.90;;;6.50;99.90;;;;;;5074466;28;20202;-83
2021/03/05 11:45:27;;;;;;;10.63;7.28;;;6.60;99.90;;;;;;5075418;28;20288;-83
2021/03/05 11:47:53;;;;;;;14.77;6.85;;;6.50;99.90;;;;;;5075583;28;20287;-84
2021/03/05 11:50:23;;;;;;;10.00;6.03;;;6.60;99.90;;;;;;5081276;28;20296;-82
2021/03/05 11:52:49;;;;;;;13.02;6.50;;;6.60;99.90;;;;;;5095699;28;20319;-83
2021/03/05 11:55:16;;;;;;;12.88;8.50;;;6.60;99.90;;;;;;5095554;28;20201;-85
2021/03/05 11:57:44;;;;;;;16.65;8.68;;;;;;;;;;5092395;28;20288;-85
2021/03/05 12:00:11;;;;;;;28.10;8.10;;;6.70;99.90;;;;;;5095348;28;20213;-82
2021/03/05 12:02:37;;;;;;;10.85;6.90;;;6.70;99.90;;;;;;5090802;28;20728;-86
2021/03/05 12:05:04;;;;;;;11.38;6.03;;;6.70;99.90;;;;;;5074660;28;20288;-86
2021/03/05 12:07:32;;;;;;;10.05;6.82;;;6.70;99.90;;;;;;5075108;28;20284;-84
2021/03/05 12:09:58;;;;;;;10.70;7.30;;;6.70;99.90;;;;;;5074606;28;20537;-84
2021/03/05 12:12:29;;;;;;;10.93;6.38;;;6.80;99.90;;;;;;5075575;28;20641;-89
2021/03/05 12:14:56;;;;;;;10.90;6.80;;;6.70;99.90;;;;;;5073330;28;20201;-87
2021/03/05 12:17:22;;;;;;;11.38;6.03;;;6.70;99.90;;;;;;5075626;28;20241;-87
2021/03/05 12:19:48;;;;;;;11.77;7.20;;;6.80;99.90;;;;;;5075710;28;20632;-85
2021/03/05 12:22:16;;;;;;;15.80;7.88;;;6.90;99.90;;;;;;5074986;28;20246;-84
2021/03/05 12:24:45;;;;;;;12.38;7.38;;;7.00;99.90;;;;;;5074759;28;20205;-89
2021/03/05 12:27:11;;;;;;;14.85;7.07;;;6.80;99.90;;;;;;5075347;28;20719;-85
2021/03/05 12:29:39;;;;;;;13.07;6.00;;;7.00;99.90;;;;;;5074692;28;20222;-85
2021/03/05 12:32:07;;;;;;;11.18;7.43;;;6.50;99.90;;;;;;5074258;28;20312;-84
2021/03/05 12:34:33;;;;;;;13.43;6.88;;;6.80;99.90;;;;;;4993000;28;20672;-89
2021/03/05 12:37:03;;;;;;;10.57;6.25;;;7.10;99.90;;;;;;4993642;28;20299;-89
2021/03/05 12:39:29;;;;;;;11.48;8.02;;;7.50;99.90;;;;;;4988923;28;20215;-89
2021/03/05 12:41:56;;;;;;;11.23;5.97;;;6.80;99.90;;;;;;4993362;28;20287;-88
2021/03/05 12:44:23;;;;;;;10.20;6.63;;;6.80;99.90;;;;;;4992161;28;20708;-86
2021/03/05 12:46:49;;;;;;;12.45;6.93;;;6.60;99.90;;;;;;4993194;28;20317;-88
2021/03/05 12:49:15;;;;;;;11.82;7.40;;;6.60;99.90;;;;;;5005176;28;20290;-85
2021/03/05 12:51:42;;;;;;;15.73;8.30;;;6.50;99.90;;;;;;5022634;28;20318;-85
2021/03/05 12:54:08;;;;;;;12.70;6.60;;;6.40;99.90;;;;;;5075601;28;20292;-85
2021/03/05 12:56:35;;;;;;;10.77;6.97;;;6.30;99.90;;;;;;5075236;28;20205;-84
2021/03/05 12:59:02;;;;;;;16.95;8.60;;;6.40;99.90;;;;;;5074439;28;20633;-87